Time;durP1;ratioP1;P1;durP2;ratioP2;P2;SDS_P1;SDS_P2;PMS_P1;PMS_P2;Temp;Humidity;BMP_temperature;BMP_pressure;BME280_temperature;BME280_humidity;BME280_pressure;Samples;Min_cycle;Max_cycle;Signal;HPM_P1;HPM_P2
2022/08/25 00:01:52;;;;;;;4.27;3.87;;;17.40;99.90;;;;;;5090326;28;20812;-49
2022/08/25 00:04:20;;;;;;;4.53;3.83;;;17.30;99.90;;;;;;5090528;28;20452;-49
2022/08/25 00:06:48;;;;;;;3.97;3.67;;;17.40;99.90;;;;;;5090416;28;21084;-48
2022/08/25 00:09:17;;;;;;;4.20;3.80;;;17.50;99.90;;;;;;5089771;28;20436;-48
2022/08/25 00:11:45;;;;;;;3.97;3.67;;;17.30;99.90;;;;;;5090320;28;20189;-49
2022/08/25 00:14:16;;;;;;;3.93;3.63;;;17.20;99.90;;;;;;5090283;28;20438;-48
2022/08/25 00:16:43;;;;;;;3.30;3.00;;;17.10;99.90;;;;;;5090207;28;20529;-48
2022/08/25 00:19:14;;;;;;;4.33;3.70;;;17.00;99.90;;;;;;5089368;28;20483;-50
2022/08/25 00:21:42;;;;;;;4.30;3.33;;;17.20;99.90;;;;;;5090310;28;20427;-49
2022/08/25 00:24:10;;;;;;;3.90;3.50;;;17.20;99.90;;;;;;5090286;28;20448;-49
2022/08/25 00:26:40;;;;;;;4.40;4.00;;;17.00;99.90;;;;;;5090141;28;20463;-49
2022/08/25 00:29:07;;;;;;;3.30;3.00;;;17.20;99.90;;;;;;5088839;28;20733;-49
2022/08/25 00:31:35;;;;;;;3.83;3.40;;;17.00;99.90;;;;;;5089996;28;20488;-50
2022/08/25 00:34:06;;;;;;;3.83;3.43;;;17.20;99.90;;;;;;5089927;28;20443;-49
2022/08/25 00:36:35;;;;;;;3.67;3.37;;;17.10;99.90;;;;;;5089927;28;20458;-49
2022/08/25 00:39:02;;;;;;;4.10;3.80;;;16.90;99.90;;;;;;5089104;28;20559;-49
2022/08/25 00:41:29;;;;;;;4.27;3.97;;;17.00;99.90;;;;;;5089770;28;20443;-48
2022/08/25 00:43:58;;;;;;;4.33;3.93;;;17.10;99.90;;;;;;5090014;28;20447;-49
2022/08/25 00:46:28;;;;;;;3.85;3.22;;;17.20;99.90;;;;;;5089362;28;20470;-50
2022/08/25 00:48:59;;;;;;;4.10;3.57;;;17.20;99.90;;;;;;5089328;28;20197;-49
2022/08/25 00:51:33;;;;;;;4.47;3.90;;;17.10;99.90;;;;;;5090192;28;20497;-49
2022/08/25 00:54:03;;;;;;;3.50;3.17;;;17.10;99.90;;;;;;5088137;28;20542;-49
2022/08/25 00:56:30;;;;;;;3.90;3.60;;;17.20;99.90;;;;;;5089788;28;20463;-49
2022/08/25 00:58:59;;;;;;;4.17;3.80;;;17.20;99.90;;;;;;5088881;28;20480;-49
2022/08/25 01:01:26;;;;;;;4.77;3.33;;;17.10;99.90;;;;;;5089770;28;20501;-49
2022/08/25 01:03:54;;;;;;;3.50;3.20;;;17.00;99.90;;;;;;5090023;28;20509;-48
2022/08/25 01:06:21;;;;;;;4.03;3.72;;;17.10;99.90;;;;;;5089672;28;20818;-50
2022/08/25 01:08:48;;;;;;;4.50;4.10;;;17.00;99.90;;;;;;5089055;28;20671;-48
2022/08/25 01:11:16;;;;;;;4.07;3.43;;;16.90;99.90;;;;;;5089597;28;20432;-48
2022/08/25 01:13:45;;;;;;;5.30;3.70;;;16.90;99.90;;;;;;5089818;28;20443;-51
2022/08/25 01:16:13;;;;;;;4.87;3.93;;;16.90;99.90;;;;;;5089827;28;20471;-49
2022/08/25 01:18:47;;;;;;;3.23;2.90;;;17.00;99.90;;;;;;5089292;28;20470;-49
2022/08/25 01:21:17;;;;;;;4.87;3.33;;;16.80;99.90;;;;;;5089242;28;20427;-49
2022/08/25 01:23:45;;;;;;;3.88;3.47;;;17.00;99.90;;;;;;5089669;28;20553;-48
2022/08/25 01:26:15;;;;;;;6.57;4.23;;;17.10;99.90;;;;;;5089881;28;20218;-49
2022/08/25 01:31:26;;;;;;;4.53;4.10;;;16.50;99.90;;;;;;5089158;28;20424;-49
2022/08/25 01:33:53;;;;;;;4.77;4.30;;;16.50;99.90;;;;;;5089494;28;20424;-49
2022/08/25 01:36:23;;;;;;;4.67;4.20;;;16.50;99.90;;;;;;5089314;28;20948;-49
2022/08/25 01:38:50;;;;;;;5.00;4.30;;;16.50;99.90;;;;;;5088692;28;20532;-48
2022/08/25 01:41:25;;;;;;;6.63;4.17;;;16.60;99.90;;;;;;5089431;28;20439;-49
2022/08/25 01:43:52;;;;;;;4.27;3.80;;;16.60;99.90;;;;;;5089507;28;20446;-48
2022/08/25 01:46:19;;;;;;;4.47;4.07;;;16.50;99.90;;;;;;5088859;28;20625;-49
2022/08/25 01:48:46;;;;;;;3.90;3.47;;;16.50;99.90;;;;;;5088779;28;20444;-49
2022/08/25 01:51:16;;;;;;;4.17;3.77;;;16.50;99.90;;;;;;5089153;28;20901;-48
2022/08/25 01:53:44;;;;;;;4.67;4.27;;;16.50;99.90;;;;;;5087819;28;20444;-49
2022/08/25 01:56:14;;;;;;;4.37;3.97;;;16.70;99.90;;;;;;5089225;28;20466;-49
2022/08/25 01:58:44;;;;;;;5.10;3.65;;;16.60;99.90;;;;;;5088860;28;20591;-49
2022/08/25 02:01:14;;;;;;;5.17;3.77;;;16.40;99.90;;;;;;5091154;28;20197;-49
2022/08/25 02:03:45;;;;;;;4.30;3.90;;;16.50;99.90;;;;;;5092981;28;20432;-48
2022/08/25 02:06:13;;;;;;;4.60;4.20;;;16.20;99.90;;;;;;5093083;28;20519;-49
2022/08/25 02:08:41;;;;;;;5.40;4.10;;;16.00;99.90;;;;;;5092919;28;20783;-48
2022/08/25 02:11:13;;;;;;;5.17;4.67;;;15.70;99.90;;;;;;5092624;28;20503;-48
2022/08/25 02:13:41;;;;;;;5.47;4.57;;;15.80;99.90;;;;;;5093115;28;20456;-48
2022/08/25 02:16:10;;;;;;;4.57;4.17;;;15.50;99.90;;;;;;5092681;28;20499;-49
2022/08/25 02:18:37;;;;;;;4.97;4.00;;;15.80;99.90;;;;;;5092334;28;20520;-50
2022/08/25 02:21:04;;;;;;;3.63;3.33;;;16.10;99.90;;;;;;5092093;28;20434;-48
2022/08/25 02:23:31;;;;;;;4.70;4.30;;;16.30;99.90;;;;;;5092446;28;20508;-48
2022/08/25 02:25:58;;;;;;;4.33;3.93;;;16.50;99.90;;;;;;5092648;28;20463;-48
2022/08/25 02:28:27;;;;;;;4.50;4.10;;;16.50;99.90;;;;;;5092504;28;20827;-49
2022/08/25 02:30:54;;;;;;;13.30;4.72;;;16.60;99.90;;;;;;5091899;28;20910;-49
2022/08/25 02:33:21;;;;;;;6.83;3.97;;;16.40;99.90;;;;;;5092390;28;20209;-48
2022/08/25 02:35:48;;;;;;;4.50;4.03;;;15.90;99.90;;;;;;5092215;28;20964;-49
2022/08/25 02:38:15;;;;;;;4.17;3.77;;;15.90;99.90;;;;;;5092252;28;20491;-49
2022/08/25 02:40:42;;;;;;;4.20;3.77;;;15.60;99.90;;;;;;5091635;28;20501;-49
2022/08/25 02:43:09;;;;;;;4.60;4.20;;;15.70;99.90;;;;;;5092177;28;20467;-49
2022/08/25 02:45:37;;;;;;;4.20;3.80;;;16.00;99.90;;;;;;5091394;28;20224;-48
2022/08/25 02:48:05;;;;;;;4.00;3.70;;;16.00;99.90;;;;;;5092288;28;20451;-49
2022/08/25 02:50:32;;;;;;;4.43;4.13;;;16.10;99.90;;;;;;5091446;28;20499;-48
2022/08/25 02:52:59;;;;;;;4.73;3.70;;;16.20;99.90;;;;;;5090123;28;20465;-49
2022/08/25 02:55:26;;;;;;;4.30;4.00;;;16.00;99.90;;;;;;5091946;28;20464;-49
2022/08/25 02:57:53;;;;;;;5.83;4.57;;;16.00;99.90;;;;;;5092314;28;20432;-49
2022/08/25 03:00:21;;;;;;;4.30;3.83;;;16.00;99.90;;;;;;5090845;28;21007;-49
2022/08/25 03:02:49;;;;;;;3.30;3.10;;;16.10;99.90;;;;;;5091721;28;20432;-49
2022/08/25 03:05:17;;;;;;;4.73;4.17;;;16.10;99.90;;;;;;5091738;28;20444;-50
2022/08/25 03:07:44;;;;;;;5.53;4.13;;;16.20;99.90;;;;;;5091806;28;20509;-48
2022/08/25 03:10:15;;;;;;;4.60;4.20;;;16.10;99.90;;;;;;5090989;28;21190;-48
2022/08/25 03:12:42;;;;;;;6.00;4.20;;;16.10;99.90;;;;;;5090970;28;20846;-48
2022/08/25 03:15:10;;;;;;;3.75;3.45;;;16.10;99.90;;;;;;5091560;28;20931;-49
2022/08/25 03:17:37;;;;;;;6.03;4.07;;;16.00;99.90;;;;;;5091771;28;20206;-49
2022/08/25 03:20:07;;;;;;;4.57;4.17;;;16.00;99.90;;;;;;5090560;28;20479;-49
2022/08/25 03:22:35;;;;;;;4.53;4.10;;;16.20;99.90;;;;;;5091424;28;20511;-49
2022/08/25 03:27:43;;;;;;;4.90;3.53;;;16.40;99.90;;;;;;5090809;28;20419;-49
2022/08/25 03:30:12;;;;;;;5.00;4.50;;;16.30;99.90;;;;;;5090231;28;20839;-49
2022/08/25 03:32:39;;;;;;;3.90;3.60;;;16.30;99.90;;;;;;5091115;28;20459;-49
2022/08/25 03:35:08;;;;;;;5.70;3.50;;;16.30;99.90;;;;;;5091132;28;20858;-51
2022/08/25 03:37:36;;;;;;;3.93;3.53;;;16.40;99.90;;;;;;5091206;28;21012;-49
2022/08/25 03:40:05;;;;;;;4.45;4.05;;;16.40;99.90;;;;;;5090149;28;20481;-49
2022/08/25 03:42:32;;;;;;;3.87;3.57;;;16.10;99.90;;;;;;5090826;28;20194;-50
2022/08/25 03:44:59;;;;;;;4.90;3.57;;;16.00;99.90;;;;;;5090617;28;20520;-49
2022/08/25 03:47:28;;;;;;;4.87;4.10;;;16.00;99.90;;;;;;5091081;28;20964;-49
2022/08/25 03:49:55;;;;;;;3.60;3.30;;;15.90;99.90;;;;;;5090123;28;20439;-50
2022/08/25 03:52:24;;;;;;;4.77;3.90;;;16.30;99.90;;;;;;5089150;28;20516;-49
2022/08/25 03:54:51;;;;;;;4.10;3.70;;;16.40;99.90;;;;;;5090955;28;20514;-49
2022/08/25 03:57:19;;;;;;;4.60;4.20;;;16.40;99.90;;;;;;5091157;28;20474;-49
2022/08/25 03:59:46;;;;;;;4.27;3.87;;;16.40;99.90;;;;;;5090087;28;21012;-49
2022/08/25 04:02:13;;;;;;;3.90;3.50;;;16.50;99.90;;;;;;5090526;28;20837;-50
2022/08/25 04:04:40;;;;;;;4.20;3.77;;;16.40;99.90;;;;;;5090967;28;20444;-49
2022/08/25 04:07:07;;;;;;;7.80;4.03;;;16.00;99.90;;;;;;5090592;28;20461;-49
2022/08/25 04:09:36;;;;;;;3.70;3.40;;;16.00;99.90;;;;;;5090001;28;20520;-49
2022/08/25 04:12:03;;;;;;;4.50;4.10;;;15.70;99.90;;;;;;5090460;28;20532;-49
2022/08/25 04:14:31;;;;;;;5.33;4.00;;;15.90;99.90;;;;;;5090556;28;20451;-50
2022/08/25 04:16:58;;;;;;;3.65;3.33;;;15.90;99.90;;;;;;5091320;28;20552;-48
2022/08/25 04:19:25;;;;;;;4.63;4.20;;;15.80;99.90;;;;;;5089674;28;20266;-49
2022/08/25 04:21:52;;;;;;;4.07;3.77;;;15.80;99.90;;;;;;5090399;28;20440;-49
2022/08/25 04:24:20;;;;;;;5.07;4.23;;;15.70;99.90;;;;;;5090088;28;20448;-51
2022/08/25 04:26:50;;;;;;;4.07;3.60;;;15.60;99.90;;;;;;5090393;28;20464;-49
2022/08/25 04:29:20;;;;;;;5.53;5.00;;;15.60;99.90;;;;;;5089025;28;20446;-49
2022/08/25 04:31:49;;;;;;;4.33;3.93;;;15.50;99.90;;;;;;5090194;28;20454;-49
2022/08/25 04:34:17;;;;;;;4.30;3.90;;;15.50;99.90;;;;;;5089957;28;20440;-49
2022/08/25 04:36:45;;;;;;;4.40;3.97;;;15.70;99.90;;;;;;5089998;28;20814;-49
2022/08/25 04:39:12;;;;;;;4.10;3.70;;;15.90;99.90;;;;;;5089405;28;20475;-49
2022/08/25 04:41:39;;;;;;;4.40;3.67;;;15.80;99.90;;;;;;5090109;28;20455;-49
2022/08/25 04:44:08;;;;;;;4.40;4.00;;;16.00;99.90;;;;;;5090511;28;20511;-49
2022/08/25 04:46:35;;;;;;;4.53;4.13;;;15.90;99.90;;;;;;5089780;28;20694;-49
2022/08/25 04:49:03;;;;;;;5.23;4.47;;;15.90;99.90;;;;;;5089327;28;20485;-49
2022/08/25 04:51:32;;;;;;;4.40;4.00;;;15.50;99.90;;;;;;5090125;28;20774;-49
2022/08/25 04:54:01;;;;;;;5.00;4.40;;;15.40;99.90;;;;;;5088369;28;20528;-49
2022/08/25 04:56:29;;;;;;;7.43;4.00;;;15.50;99.90;;;;;;5089954;28;20471;-49
2022/08/25 04:58:56;;;;;;;7.60;4.25;;;15.50;99.90;;;;;;5089223;28;20488;-49
2022/08/25 05:01:26;;;;;;;4.10;3.70;;;15.30;99.90;;;;;;5089982;28;20205;-48
2022/08/25 05:03:55;;;;;;;4.40;4.00;;;15.50;99.90;;;;;;5089771;28;20460;-49
2022/08/25 05:06:23;;;;;;;5.13;4.63;;;15.50;99.90;;;;;;5089657;28;20460;-49
2022/08/25 05:08:50;;;;;;;4.30;3.90;;;15.60;99.90;;;;;;5088924;28;20205;-49
2022/08/25 05:11:19;;;;;;;4.90;4.43;;;15.70;99.90;;;;;;5089974;28;20440;-48
2022/08/25 05:13:47;;;;;;;4.73;4.33;;;15.60;99.90;;;;;;5089866;28;20454;-49
2022/08/25 05:16:14;;;;;;;4.73;4.23;;;15.40;99.90;;;;;;5089549;28;20528;-49
2022/08/25 05:18:43;;;;;;;4.75;3.88;;;15.40;99.90;;;;;;5089805;28;20453;-51
2022/08/25 05:21:12;;;;;;;5.00;4.60;;;15.40;99.90;;;;;;5089318;28;20220;-49
2022/08/25 05:23:40;;;;;;;4.07;3.67;;;15.50;99.90;;;;;;5089695;28;20989;-48
2022/08/25 05:26:10;;;;;;;4.70;4.30;;;15.50;99.90;;;;;;5089914;28;20217;-50
2022/08/25 05:28:39;;;;;;;4.90;4.40;;;15.20;99.90;;;;;;5088768;28;20485;-49
2022/08/25 05:31:08;;;;;;;5.30;4.80;;;15.20;99.90;;;;;;5089597;28;20456;-49
2022/08/25 05:33:35;;;;;;;5.00;4.43;;;15.40;99.90;;;;;;5089609;28;20432;-49
2022/08/25 05:36:05;;;;;;;4.97;4.57;;;15.40;99.90;;;;;;5091109;28;20475;-49
2022/08/25 05:38:32;;;;;;;5.30;4.20;;;15.50;99.90;;;;;;5093436;28;20447;-49
2022/08/25 05:41:01;;;;;;;5.00;4.50;;;15.50;99.90;;;;;;5092567;28;20475;-49
2022/08/25 05:43:28;;;;;;;4.88;4.47;;;15.20;99.90;;;;;;5093353;28;20484;-49
2022/08/25 05:45:57;;;;;;;5.50;5.00;;;15.30;99.90;;;;;;5093107;28;20222;-49
2022/08/25 05:48:25;;;;;;;5.20;4.70;;;15.30;99.90;;;;;;5093224;28;20444;-49
2022/08/25 05:50:52;;;;;;;5.67;5.13;;;15.60;99.90;;;;;;5092614;28;20500;-49
2022/08/25 05:53:22;;;;;;;5.07;4.57;;;15.80;99.90;;;;;;5091706;28;20456;-50
2022/08/25 05:55:49;;;;;;;4.90;4.50;;;16.00;99.90;;;;;;5093119;28;21066;-50
2022/08/25 05:58:17;;;;;;;5.10;4.70;;;15.80;99.90;;;;;;5092989;28;20455;-49
2022/08/25 06:00:44;;;;;;;4.40;4.00;;;15.80;99.90;;;;;;5092479;28;20471;-49
2022/08/25 06:03:10;;;;;;;4.30;4.00;;;15.70;99.90;;;;;;5093110;28;20454;-49
2022/08/25 06:05:37;;;;;;;4.73;4.33;;;15.80;99.90;;;;;;5093004;28;20773;-50
2022/08/25 06:08:05;;;;;;;5.73;5.13;;;16.00;99.90;;;;;;5093048;28;20476;-49
2022/08/25 06:10:34;;;;;;;7.30;4.90;;;15.80;99.90;;;;;;5091969;28;20546;-49
2022/08/25 06:13:01;;;;;;;5.37;4.87;;;15.90;99.90;;;;;;5092744;28;20436;-49
2022/08/25 06:15:29;;;;;;;8.23;5.87;;;15.80;99.90;;;;;;5092790;28;20943;-49
2022/08/25 06:17:57;;;;;;;5.10;4.63;;;15.70;99.90;;;;;;5092952;28;20447;-50
2022/08/25 06:20:27;;;;;;;5.37;4.87;;;15.90;99.90;;;;;;5091762;28;20552;-49
2022/08/25 06:22:54;;;;;;;6.13;5.40;;;15.80;99.90;;;;;;5092431;28;20447;-48
2022/08/25 06:25:23;;;;;;;5.70;5.20;;;15.80;99.90;;;;;;5092821;28;20432;-50
2022/08/25 06:27:53;;;;;;;4.57;4.17;;;15.60;99.90;;;;;;5092495;28;20508;-50
2022/08/25 06:30:22;;;;;;;6.05;4.85;;;15.40;99.90;;;;;;5090887;28;20868;-49
2022/08/25 06:32:49;;;;;;;5.97;5.47;;;15.40;99.90;;;;;;5092614;28;20202;-50
2022/08/25 06:35:19;;;;;;;5.50;4.93;;;15.60;99.90;;;;;;5092387;28;20500;-49
2022/08/25 06:37:46;;;;;;;6.43;5.00;;;15.60;99.90;;;;;;5092238;28;20428;-49
2022/08/25 06:40:15;;;;;;;6.07;5.47;;;15.80;99.90;;;;;;5091417;28;20471;-50
2022/08/25 06:42:42;;;;;;;8.50;6.70;;;15.90;99.90;;;;;;5092001;28;20428;-49
2022/08/25 06:45:11;;;;;;;6.60;6.00;;;15.80;99.90;;;;;;5091507;28;20834;-49
2022/08/25 06:47:38;;;;;;;7.88;6.47;;;15.70;99.90;;;;;;5091915;28;20672;-49
2022/08/25 06:50:05;;;;;;;7.40;6.50;;;15.80;99.90;;;;;;5091370;28;20209;-49
2022/08/25 06:52:33;;;;;;;9.03;7.67;;;15.80;99.90;;;;;;5090354;28;20443;-49
2022/08/25 06:55:00;;;;;;;8.30;7.50;;;15.80;99.90;;;;;;5091888;28;20427;-49
2022/08/25 06:57:27;;;;;;;7.50;6.50;;;15.80;99.90;;;;;;5091794;28;20467;-49
2022/08/25 06:59:54;;;;;;;8.93;7.33;;;15.90;99.90;;;;;;5091226;28;20476;-48
2022/08/25 07:02:22;;;;;;;7.13;6.53;;;16.10;99.90;;;;;;5091782;28;20459;-49
2022/08/25 07:04:51;;;;;;;8.20;7.40;;;16.00;99.90;;;;;;5091771;28;20486;-50
2022/08/25 07:07:18;;;;;;;7.80;6.23;;;16.10;99.90;;;;;;5091574;28;20443;-49
2022/08/25 07:09:45;;;;;;;5.20;4.80;;;16.10;99.90;;;;;;5091087;28;20455;-49
2022/08/25 07:12:12;;;;;;;6.80;5.40;;;16.20;99.90;;;;;;5091908;28;20455;-50
2022/08/25 07:14:39;;;;;;;6.50;5.03;;;16.40;99.90;;;;;;5091629;28;20790;-52
2022/08/25 07:17:06;;;;;;;5.73;4.73;;;16.60;99.90;;;;;;5091344;28;20475;-49
2022/08/25 07:19:35;;;;;;;4.90;4.50;;;16.70;99.90;;;;;;5090752;28;20953;-49
2022/08/25 07:22:02;;;;;;;5.37;4.93;;;16.60;99.90;;;;;;5091505;28;20820;-51
2022/08/25 07:24:29;;;;;;;4.93;4.53;;;17.00;99.90;;;;;;5091988;28;20436;-49
2022/08/25 07:26:56;;;;;;;5.77;5.07;;;17.10;99.90;;;;;;5091365;28;20472;-49
2022/08/25 07:29:25;;;;;;;6.97;5.00;;;17.20;99.90;;;;;;5090517;28;20438;-49
2022/08/25 07:31:52;;;;;;;5.33;4.83;;;17.10;99.90;;;;;;5091097;28;20920;-51
2022/08/25 07:37:05;;;;;;;5.40;4.90;;;17.00;99.90;;;;;;5091087;28;20443;-49
2022/08/25 07:39:33;;;;;;;4.80;4.23;;;17.20;99.90;;;;;;5090425;28;20649;-50
2022/08/25 07:42:00;;;;;;;6.27;4.37;;;17.40;99.90;;;;;;5091081;28;20530;-49
2022/08/25 07:44:28;;;;;;;5.20;4.70;;;17.50;99.90;;;;;;5090787;28;20419;-49
2022/08/25 07:46:56;;;;;;;7.97;4.60;;;17.50;99.90;;;;;;5090726;28;20866;-49
2022/08/25 07:49:24;;;;;;;4.90;4.50;;;17.60;99.90;;;;;;5090174;28;20443;-50
2022/08/25 07:51:52;;;;;;;4.90;4.50;;;17.80;99.90;;;;;;5090308;28;20854;-53
2022/08/25 07:54:21;;;;;;;4.60;4.20;;;17.90;99.90;;;;;;5090704;28;20458;-50
2022/08/25 07:56:48;;;;;;;5.67;5.10;;;18.00;99.90;;;;;;5090857;28;20979;-49
2022/08/25 07:59:15;;;;;;;4.77;4.37;;;18.10;99.90;;;;;;5089524;28;20451;-49
2022/08/25 08:01:42;;;;;;;4.77;4.37;;;18.10;99.90;;;;;;5090467;28;20479;-50
2022/08/25 08:04:09;;;;;;;5.57;3.97;;;18.30;99.90;;;;;;5090813;28;20444;-49
2022/08/25 08:06:37;;;;;;;4.80;4.40;;;18.20;99.90;;;;;;5090435;28;20209;-50
2022/08/25 08:09:04;;;;;;;4.93;4.53;;;18.40;99.90;;;;;;5090007;28;20444;-49
2022/08/25 08:11:39;;;;;;;5.40;4.83;;;18.40;99.90;;;;;;5090845;28;20428;-49
2022/08/25 08:14:07;;;;;;;5.57;4.40;;;18.20;99.90;;;;;;5090532;28;20434;-50
2022/08/25 08:16:34;;;;;;;5.13;4.67;;;18.40;99.90;;;;;;5090204;28;20225;-49
2022/08/25 08:19:02;;;;;;;4.70;4.30;;;18.40;99.90;;;;;;5089839;28;21421;-49
2022/08/25 08:21:32;;;;;;;5.03;4.53;;;18.30;99.90;;;;;;5090093;28;20599;-49
2022/08/25 08:24:00;;;;;;;5.40;4.90;;;18.40;99.90;;;;;;5090168;28;20489;-49
2022/08/25 08:26:29;;;;;;;4.53;4.17;;;18.50;99.90;;;;;;5090135;28;20468;-50
2022/08/25 08:28:57;;;;;;;3.93;3.63;;;18.70;99.90;;;;;;5089169;28;20554;-49
2022/08/25 08:31:25;;;;;;;4.80;4.27;;;18.80;99.90;;;;;;5089958;28;20782;-50
2022/08/25 08:33:54;;;;;;;4.93;4.50;;;18.90;99.90;;;;;;5090606;28;20784;-50
2022/08/25 08:36:22;;;;;;;5.40;4.90;;;19.10;99.90;;;;;;5090034;28;20471;-49
2022/08/25 08:38:50;;;;;;;5.18;4.78;;;19.20;99.90;;;;;;5089543;28;20866;-49
2022/08/25 08:44:41;;;;;;;4.77;4.37;;;19.50;99.90;;;;;;5089673;28;20449;-49
2022/08/25 08:47:16;;;;;;;5.40;4.90;;;19.40;99.90;;;;;;5090064;28;20549;-49
2022/08/25 08:49:51;;;;;;;4.27;3.97;;;19.40;99.90;;;;;;5089270;28;20436;-49
2022/08/25 08:52:22;;;;;;;4.80;4.37;;;19.60;99.90;;;;;;5088963;28;20959;-49
2022/08/25 08:54:59;;;;;;;8.80;5.07;;;19.70;99.90;;;;;;5090448;28;20452;-49
2022/08/25 08:57:28;;;;;;;6.10;4.57;;;19.80;99.90;;;;;;5089714;28;20959;-50
2022/08/25 09:00:01;;;;;;;5.10;4.30;;;20.00;99.90;;;;;;5089113;28;20443;-50
2022/08/25 09:02:35;;;;;;;5.13;4.63;;;20.00;99.90;;;;;;5090247;28;20451;-50
2022/08/25 09:05:07;;;;;;;5.20;4.77;;;20.20;99.90;;;;;;5089949;28;20443;-49
2022/08/25 09:07:39;;;;;;;4.90;4.50;;;20.20;99.90;;;;;;5090130;28;20475;-49
2022/08/25 09:10:07;;;;;;;7.70;4.70;;;20.40;99.90;;;;;;5089237;28;20458;-50
2022/08/25 09:12:40;;;;;;;5.87;5.37;;;20.80;99.90;;;;;;5093888;28;20447;-50
2022/08/25 09:15:18;;;;;;;4.80;4.47;;;20.60;99.90;;;;;;5093975;28;20493;-50
2022/08/25 09:18:03;;;;;;;6.63;4.25;;;20.80;99.90;;;;;;5093917;28;20500;-51
2022/08/25 09:20:45;;;;;;;4.60;4.20;;;21.00;99.90;;;;;;5093562;28;20209;-49
2022/08/25 09:23:25;;;;;;;4.80;4.40;;;20.90;99.90;;;;;;5093597;28;20428;-50
2022/08/25 09:26:00;;;;;;;4.80;4.40;;;20.80;99.90;;;;;;5093717;28;20871;-50
2022/08/25 09:28:31;;;;;;;5.77;5.20;;;20.80;99.90;;;;;;5093186;28;21111;-50
2022/08/25 09:31:03;;;;;;;5.77;5.37;;;20.90;99.90;;;;;;5093013;28;21004;-49
2022/08/25 09:33:32;;;;;;;5.63;5.10;;;21.00;99.90;;;;;;5093596;28;20443;-49
2022/08/25 09:35:59;;;;;;;5.43;4.93;;;21.20;99.90;;;;;;5093442;28;20981;-49
2022/08/25 09:38:27;;;;;;;7.70;5.00;;;21.40;99.90;;;;;;5093548;28;20617;-49
2022/08/25 09:40:59;;;;;;;5.13;4.63;;;21.70;99.90;;;;;;5092548;28;20570;-51
2022/08/25 09:43:30;;;;;;;5.80;5.30;;;21.70;99.90;;;;;;5093630;28;20798;-50
2022/08/25 09:46:01;;;;;;;5.60;5.10;;;21.40;99.90;;;;;;5093021;28;20546;-50
2022/08/25 09:48:36;;;;;;;5.70;4.10;;;21.40;99.90;;;;;;5093645;28;20473;-49
2022/08/25 09:51:17;;;;;;;5.20;4.80;;;21.90;99.90;;;;;;5092838;28;20453;-51
2022/08/25 09:53:51;;;;;;;5.30;4.90;;;21.80;99.90;;;;;;5092155;28;20427;-49
2022/08/25 09:56:21;;;;;;;5.73;5.23;;;21.70;99.90;;;;;;5093100;28;20477;-50
2022/08/25 09:58:48;;;;;;;4.93;4.33;;;22.00;99.90;;;;;;5092680;28;20439;-50
2022/08/25 10:01:19;;;;;;;5.30;4.80;;;22.10;99.90;;;;;;5092877;28;20463;-49
2022/08/25 10:04:03;;;;;;;4.77;4.27;;;22.20;99.90;;;;;;5093020;28;20944;-50
2022/08/25 10:06:36;;;;;;;4.93;4.53;;;22.10;99.90;;;;;;5092724;28;20451;-49
2022/08/25 10:09:06;;;;;;;7.10;4.50;;;22.40;99.90;;;;;;5092192;28;20820;-49
2022/08/25 10:11:38;;;;;;;4.73;4.33;;;22.20;99.90;;;;;;5092706;28;20783;-50
2022/08/25 10:14:16;;;;;;;8.00;5.10;;;22.30;99.90;;;;;;5092853;28;20812;-49
2022/08/25 10:16:45;;;;;;;4.97;4.57;;;22.30;99.90;;;;;;5148197;22;20479;-50
2022/08/25 10:19:22;;;;;;;7.07;4.63;;;22.30;99.90;;;;;;5091524;28;20201;-50
2022/08/25 10:22:06;;;;;;;5.60;4.87;;;22.10;99.90;;;;;;5091832;28;20463;-49
2022/08/25 10:24:34;;;;;;;5.93;5.43;;;22.70;99.90;;;;;;5092673;28;20466;-50
2022/08/25 10:27:07;;;;;;;5.27;4.87;;;22.40;99.90;;;;;;5092185;28;20463;-50
2022/08/25 10:30:04;;;;;;;5.60;5.13;;;22.50;99.90;;;;;;5091708;28;20443;-49
2022/08/25 10:32:47;;;;;;;4.83;4.43;;;22.50;99.90;;;;;;5085545;28;20447;-50
2022/08/25 10:35:18;;;;;;;4.90;4.40;;;22.70;99.90;;;;;;5091874;28;20455;-50
2022/08/25 10:37:57;;;;;;;4.95;4.55;;;22.70;99.90;;;;;;5091255;28;20551;-50
2022/08/25 10:40:31;;;;;;;5.00;4.50;;;22.70;99.90;;;;;;5090602;28;20201;-51
2022/08/25 10:43:06;;;;;;;7.40;3.80;;;23.00;99.90;;;;;;5090984;28;20496;-50
2022/08/25 10:45:44;;;;;;;4.20;3.90;;;23.30;99.90;;;;;;5090905;28;20453;-49
2022/08/25 10:48:35;;;;;;;3.73;3.43;;;23.20;99.90;;;;;;5091437;28;20423;-49
2022/08/25 10:51:10;;;;;;;4.03;3.73;;;23.40;99.90;;;;;;5091189;28;21230;-50
2022/08/25 10:53:48;;;;;;;5.80;4.50;;;23.30;99.90;;;;;;5090664;28;20467;-49
2022/08/25 10:56:20;;;;;;;4.80;4.40;;;23.70;99.90;;;;;;5091012;28;20465;-51
2022/08/25 10:59:14;;;;;;;3.90;3.60;;;24.30;99.90;;;;;;5091683;28;20505;-48
2022/08/25 11:01:53;;;;;;;4.60;3.70;;;24.40;99.90;;;;;;5091801;28;20471;-51
2022/08/25 11:04:28;;;;;;;4.73;4.40;;;24.40;99.90;;;;;;5092153;28;20439;-50
2022/08/25 11:06:58;;;;;;;4.60;3.90;;;24.20;99.90;;;;;;5092080;28;20474;-49
2022/08/25 11:09:30;;;;;;;5.07;4.60;;;24.50;99.90;;;;;;5091272;28;20451;-50
2022/08/25 11:12:00;;;;;;;4.95;4.63;;;24.40;99.90;;;;;;5091975;28;20436;-50
2022/08/25 11:14:31;;;;;;;3.83;3.53;;;24.50;99.90;;;;;;5091872;28;20201;-50
2022/08/25 11:17:04;;;;;;;4.50;4.10;;;24.30;99.90;;;;;;5091617;28;20548;-50
2022/08/25 11:19:37;;;;;;;5.63;5.03;;;24.60;99.90;;;;;;5091410;28;20478;-49
2022/08/25 11:22:12;;;;;;;5.80;4.60;;;24.60;99.90;;;;;;5090940;28;20495;-49
2022/08/25 11:24:52;;;;;;;5.07;4.57;;;24.70;99.90;;;;;;5091411;28;20439;-51
2022/08/25 11:27:23;;;;;;;6.70;4.40;;;25.00;99.90;;;;;;5091206;28;21025;-50
2022/08/25 11:30:00;;;;;;;4.50;4.10;;;24.90;99.90;;;;;;5090753;28;20451;-50
2022/08/25 11:32:32;;;;;;;5.07;4.67;;;24.70;99.90;;;;;;5090872;28;20800;-51
2022/08/25 11:35:04;;;;;;;4.30;3.90;;;24.60;99.90;;;;;;5090823;28;20450;-50
2022/08/25 11:37:32;;;;;;;5.27;4.77;;;24.70;99.90;;;;;;5091246;28;20520;-49
2022/08/25 11:40:19;;;;;;;4.73;4.30;;;24.70;99.90;;;;;;5090511;28;20447;-50
2022/08/25 11:42:58;;;;;;;4.73;4.17;;;24.90;99.90;;;;;;5090707;28;20521;-50
2022/08/25 11:45:49;;;;;;;4.40;4.00;;;24.70;99.90;;;;;;5090564;28;20529;-50
2022/08/25 11:48:28;;;;;;;6.23;4.23;;;24.80;99.90;;;;;;5090963;28;20967;-51
2022/08/25 11:51:00;;;;;;;4.67;4.20;;;25.20;99.90;;;;;;5090303;28;20952;-49
2022/08/25 11:53:30;;;;;;;5.33;4.10;;;25.30;99.90;;;;;;5090051;28;20444;-49
2022/08/25 11:56:01;;;;;;;4.57;4.18;;;25.40;99.90;;;;;;5090619;28;20512;-51
2022/08/25 11:58:39;;;;;;;4.53;4.17;;;25.30;99.90;;;;;;5090871;28;20205;-50
2022/08/25 12:01:10;;;;;;;5.67;4.50;;;25.30;99.90;;;;;;5090481;28;20427;-49
2022/08/25 12:04:11;;;;;;;7.80;4.47;;;25.50;99.90;;;;;;5090792;28;20451;-50
2022/08/25 12:07:17;;;;;;;4.90;4.50;;;25.60;99.90;;;;;;5089932;28;20452;-50
2022/08/25 12:10:19;;;;;;;6.03;4.10;;;25.50;99.90;;;;;;5089979;28;20454;-50
2022/08/25 12:12:59;;;;;;;4.90;4.50;;;25.20;99.90;;;;;;5090284;28;20858;-50
2022/08/25 12:15:32;;;;;;;5.43;4.13;;;25.20;99.90;;;;;;5090562;28;20818;-49
2022/08/25 12:18:11;;;;;;;4.90;4.50;;;25.30;99.90;;;;;;5090409;28;20474;-50
2022/08/25 12:21:10;;;;;;;5.60;4.13;;;25.60;99.90;;;;;;5089608;28;20427;-50
2022/08/25 12:23:41;;;;;;;4.73;4.33;;;25.80;99.90;;;;;;5090321;28;20431;-50
2022/08/25 12:26:18;;;;;;;5.10;4.60;;;25.60;99.90;;;;;;5090364;28;20865;-49
2022/08/25 12:28:57;;;;;;;4.60;4.20;;;25.70;99.90;;;;;;5089847;28;20508;-50
2022/08/25 12:32:01;;;;;;;4.80;4.40;;;25.70;99.90;;;;;;5090262;28;20443;-50
2022/08/25 12:34:46;;;;;;;4.90;4.50;;;25.70;99.90;;;;;;5090374;28;20431;-50
2022/08/25 12:37:16;;;;;;;5.00;4.50;;;25.60;99.90;;;;;;5090158;28;21032;-50
2022/08/25 12:39:53;;;;;;;5.23;4.40;;;25.70;99.90;;;;;;5089165;28;20976;-51
2022/08/25 12:42:30;;;;;;;4.67;4.27;;;25.60;99.90;;;;;;5089904;28;20498;-50
2022/08/25 12:45:14;;;;;;;13.53;4.77;;;25.40;99.90;;;;;;5089258;28;20458;-50
2022/08/25 12:47:43;;;;;;;5.70;5.20;;;25.70;99.90;;;;;;5088432;28;20463;-50
2022/08/25 12:50:35;;;;;;;14.63;5.70;;;25.70;99.90;;;;;;5089478;28;20610;-50
2022/08/25 12:53:11;;;;;;;5.38;4.88;;;25.40;99.90;;;;;;5088802;28;20947;-50
2022/08/25 12:55:48;;;;;;;7.00;4.78;;;25.60;99.90;;;;;;5089969;28;20300;-50
2022/08/25 12:58:17;;;;;;;6.77;5.40;;;25.70;99.90;;;;;;5089901;28;20193;-50
2022/08/25 13:01:06;;;;;;;5.53;4.57;;;25.70;99.90;;;;;;5089204;28;20987;-50
2022/08/25 13:04:09;;;;;;;4.77;4.37;;;25.80;99.90;;;;;;5089760;28;20570;-49
2022/08/25 13:07:00;;;;;;;5.83;5.33;;;26.10;99.90;;;;;;5013774;28;20462;-50
2022/08/25 13:10:02;;;;;;;4.70;4.30;;;25.90;99.90;;;;;;5089195;28;20436;-49
2022/08/25 13:12:35;;;;;;;5.00;4.50;;;26.30;99.90;;;;;;5089796;28;20849;-50
2022/08/25 13:15:03;;;;;;;5.07;4.63;;;26.40;99.90;;;;;;5089822;28;20471;-50
2022/08/25 13:17:33;;;;;;;5.00;4.50;;;26.50;99.90;;;;;;5089643;28;20529;-49